Time;durP1;ratioP1;P1;durP2;ratioP2;P2;SDS_P1;SDS_P2;PMS_P1;PMS_P2;Temp;Humidity;BMP_temperature;BMP_pressure;BME280_temperature;BME280_humidity;BME280_pressure;Samples;Min_cycle;Max_cycle;Signal;HPM_P1;HPM_P2
2022/01/01 00:01:51;;;;;;;11.45;7.93;;;;;;;14.65;70.67;101007.47;5083593;28;20056;-80
2022/01/01 00:04:19;;;;;;;13.80;8.25;;;;;;;14.40;71.75;100999.53;5081840;28;20052;-81
2022/01/01 00:06:46;;;;;;;14.35;8.30;;;;;;;14.47;71.41;100993.41;5083205;28;20045;-81
2022/01/01 00:09:14;;;;;;;13.23;9.13;;;;;;;14.53;71.38;101006.13;5083724;28;20059;-81
2022/01/01 00:11:41;;;;;;;11.68;8.05;;;;;;;14.56;71.29;101008.28;5083228;28;20183;-80
2022/01/01 00:14:09;;;;;;;14.02;7.65;;;;;;;14.47;71.27;100998.19;5082377;28;20052;-81
2022/01/01 00:16:37;;;;;;;11.45;8.07;;;;;;;14.54;71.35;101002.16;5081556;28;20048;-80
2022/01/01 00:19:05;;;;;;;11.57;8.77;;;;;;;14.63;70.79;101005.00;5081449;28;20127;-80
2022/01/01 00:21:32;;;;;;;10.15;7.20;;;;;;;14.60;71.10;101000.88;5081813;28;20045;-81
2022/01/01 00:24:00;;;;;;;12.05;7.97;;;;;;;14.54;71.13;101013.38;5082521;28;20071;-80
2022/01/01 00:26:27;;;;;;;11.43;8.20;;;;;;;14.50;71.40;101012.38;5082309;28;20059;-81
2022/01/01 00:28:55;;;;;;;12.85;8.07;;;;;;;14.55;71.23;101023.47;5081220;28;20068;-80
2022/01/01 00:31:22;;;;;;;12.95;7.82;;;;;;;14.58;71.22;101014.41;5080225;28;20063;-79
2022/01/01 00:33:51;;;;;;;12.82;7.95;;;;;;;14.54;71.09;101018.97;5081601;28;20059;-81
2022/01/01 00:36:20;;;;;;;10.83;7.80;;;;;;;14.49;71.07;101007.94;5080350;28;20056;-80
2022/01/01 00:38:48;;;;;;;13.02;7.10;;;;;;;14.64;70.68;101028.28;5081076;28;20055;-81
2022/01/01 00:41:15;;;;;;;13.50;8.73;;;;;;;14.37;71.33;101027.38;5080756;28;20059;-81
2022/01/01 00:43:43;;;;;;;13.60;8.00;;;;;;;14.47;71.40;101012.19;5081912;28;20048;-81
2022/01/01 00:46:10;;;;;;;10.00;7.32;;;;;;;14.38;71.41;101010.22;5081303;28;20052;-80
2022/01/01 00:48:38;;;;;;;15.57;8.45;;;;;;;14.59;70.98;101016.06;5081747;28;20056;-80
2022/01/01 00:51:07;;;;;;;12.85;8.40;;;;;;;14.55;70.74;101009.47;5080382;28;20512;-80
2022/01/01 00:53:34;;;;;;;12.23;8.40;;;;;;;14.61;70.58;101018.50;5081285;28;20056;-81
2022/01/01 00:56:02;;;;;;;14.60;8.25;;;;;;;14.56;70.84;101004.66;5082215;28;20063;-81
2022/01/01 00:58:29;;;;;;;15.65;9.10;;;;;;;14.49;71.06;101004.28;5081585;28;20428;-81
2022/01/01 01:00:56;;;;;;;15.18;7.97;;;;;;;14.60;70.58;101006.47;5080584;28;20044;-81
2022/01/01 01:03:24;;;;;;;15.82;8.32;;;;;;;14.37;71.27;101019.78;5079631;28;20060;-80
2022/01/01 01:05:51;;;;;;;14.00;8.20;;;;;;;14.40;71.22;101021.94;5080712;28;20056;-79
2022/01/01 01:08:20;;;;;;;15.23;8.40;;;;;;;14.43;71.46;101023.25;5078907;28;20406;-81
2022/01/01 01:10:48;;;;;;;14.03;8.30;;;;;;;14.38;71.45;101031.81;5079382;28;20064;-81
2022/01/01 01:13:16;;;;;;;16.77;9.30;;;;;;;14.34;71.72;101033.59;5079101;28;20056;-81
2022/01/01 01:15:44;;;;;;;18.90;10.07;;;;;;;14.32;71.60;101038.72;5080638;28;20048;-81
2022/01/01 01:18:12;;;;;;;20.98;10.50;;;;;;;14.21;72.06;101038.19;5079916;28;20067;-80
2022/01/01 01:20:40;;;;;;;18.45;9.32;;;;;;;14.39;71.46;101039.06;5080220;28;20052;-81
2022/01/01 01:23:08;;;;;;;17.98;10.05;;;;;;;14.46;71.14;101039.41;5081362;28;20055;-80
2022/01/01 01:25:40;;;;;;;15.05;10.18;;;;;;;14.32;71.59;101053.56;5079203;28;20052;-79
2022/01/01 01:28:08;;;;;;;16.60;9.48;;;;;;;14.42;71.23;101052.41;5079407;28;20059;-79
2022/01/01 01:30:37;;;;;;;17.50;10.23;;;;;;;14.39;71.63;101055.88;5079761;28;20052;-81
2022/01/01 01:33:05;;;;;;;18.80;11.00;;;;;;;14.43;71.18;101062.50;5081077;28;20056;-80
2022/01/01 01:35:33;;;;;;;16.35;10.07;;;;;;;14.45;71.28;101057.38;5081203;28;20451;-80
2022/01/01 01:38:01;;;;;;;17.60;11.07;;;;;;;14.45;71.39;101062.16;5082110;28;20045;-80
2022/01/01 01:40:29;;;;;;;16.42;10.50;;;;;;;14.38;71.77;101062.63;5080172;28;20048;-79
2022/01/01 01:42:58;;;;;;;16.58;10.07;;;;;;;14.44;71.26;101052.09;5080912;28;20048;-81
2022/01/01 01:45:28;;;;;;;18.63;10.40;;;;;;;14.47;71.06;101055.09;5080092;28;20053;-79
2022/01/01 01:47:55;;;;;;;;;;;;;;;14.40;71.45;101049.13;5077868;28;20059;-80
2022/01/01 01:50:22;;;;;;;16.30;10.43;;;;;;;14.46;71.14;101050.63;5078984;28;20424;-81
2022/01/01 01:52:54;;;;;;;20.75;11.10;;;;;;;14.40;71.45;101035.09;5058425;28;20084;-81
2022/01/01 01:55:22;;;;;;;15.52;9.45;;;;;;;14.40;71.44;101052.78;5058739;28;20057;-80
2022/01/01 01:57:50;;;;;;;15.73;9.65;;;;;;;14.38;71.70;101055.06;5059921;28;20060;-80
2022/01/01 02:00:45;;;;;;;18.35;9.90;;;;;;;14.49;71.28;101058.38;5061427;28;20379;-80
2022/01/01 02:03:13;;;;;;;15.48;9.10;;;;;;;14.41;71.67;101050.78;5059820;28;20052;-81
2022/01/01 02:05:41;;;;;;;14.88;9.50;;;;;;;14.41;71.63;101053.59;5060065;28;20060;-81
2022/01/01 02:08:10;;;;;;;15.98;9.35;;;;;;;14.36;71.50;101059.31;5059833;28;20057;-80
2022/01/01 02:10:38;;;;;;;;;;;;;;;14.46;71.18;101049.81;5064246;28;20060;-81
2022/01/01 02:13:12;;;;;;;15.77;8.65;;;;;;;14.35;71.91;101054.88;5080033;28;20528;-80
2022/01/01 02:15:48;;;;;;;16.42;8.82;;;;;;;14.32;71.85;101049.91;5081888;28;20063;-81
2022/01/01 02:18:15;;;;;;;13.15;7.70;;;;;;;14.34;71.88;101051.25;5080156;28;20060;-80
2022/01/01 02:20:49;;;;;;;13.35;8.63;;;;;;;14.43;71.79;101051.28;5080423;28;20071;-80
2022/01/01 02:23:17;;;;;;;12.48;8.07;;;;;;;14.24;72.39;101054.38;5080894;28;20053;-81
2022/01/01 02:25:46;;;;;;;15.80;8.65;;;;;;;14.38;71.96;101048.63;5082708;28;20067;-80
2022/01/01 02:28:14;;;;;;;13.93;8.15;;;;;;;14.43;71.93;101065.28;5084459;28;20052;-79
2022/01/01 02:30:41;;;;;;;16.25;8.95;;;;;;;14.36;71.99;101068.59;5084072;28;20048;-79
2022/01/01 02:33:08;;;;;;;15.77;8.25;;;;;;;14.42;71.58;101063.63;5083076;28;20492;-80
2022/01/01 02:35:36;;;;;;;13.55;8.18;;;;;;;14.41;71.79;101067.59;5083816;28;20079;-79
2022/01/01 02:38:07;;;;;;;14.20;8.30;;;;;;;14.31;72.22;101065.09;5084151;28;20059;-81
2022/01/01 02:40:34;;;;;;;16.05;8.02;;;;;;;14.31;72.05;101065.09;5083181;28;20048;-81
2022/01/01 02:43:02;;;;;;;14.15;8.45;;;;;;;14.47;71.57;101068.25;5084307;28;20373;-79
2022/01/01 02:45:32;;;;;;;15.73;7.80;;;;;;;14.47;71.74;101074.72;5083631;28;20067;-80
2022/01/01 02:48:00;;;;;;;13.65;7.35;;;;;;;14.32;72.01;101072.34;5084042;28;20060;-80
2022/01/01 02:50:27;;;;;;;15.48;8.73;;;;;;;14.41;71.59;101059.19;5082688;28;20052;-80
2022/01/01 02:52:54;;;;;;;14.13;7.68;;;;;;;14.47;71.42;101059.84;5082963;28;20052;-79
2022/01/01 02:55:23;;;;;;;13.43;8.00;;;;;;;14.54;71.30;101055.41;5084880;28;20131;-80
2022/01/01 02:57:51;;;;;;;14.90;7.60;;;;;;;14.45;71.19;101060.19;5084671;28;20048;-80
2022/01/01 03:00:19;;;;;;;18.10;8.50;;;;;;;14.50;71.02;101054.41;5083164;28;20076;-79
2022/01/01 03:02:46;;;;;;;13.32;7.30;;;;;;;14.46;70.55;101050.63;5083167;28;20044;-81
2022/01/01 03:05:13;;;;;;;12.35;7.40;;;;;;;14.53;70.48;101050.13;5083377;28;20059;-80
2022/01/01 03:07:41;;;;;;;14.73;8.27;;;;;;;14.42;70.86;101055.22;5083917;28;20048;-80
2022/01/01 03:10:09;;;;;;;12.73;7.82;;;;;;;14.43;70.98;101062.50;5082985;28;20045;-79
2022/01/01 03:12:37;;;;;;;16.08;8.30;;;;;;;14.42;70.60;101069.22;5081479;28;20049;-79
2022/01/01 03:15:06;;;;;;;12.50;7.25;;;;;;;14.27;71.22;101066.91;5082460;28;20060;-79
2022/01/01 03:17:33;;;;;;;15.50;7.72;;;;;;;14.47;70.28;101068.25;5082996;28;20053;-80
2022/01/01 03:20:00;;;;;;;13.00;8.13;;;;;;;14.35;70.59;101069.72;5082627;28;20053;-79
2022/01/01 03:22:27;;;;;;;13.23;8.20;;;;;;;14.38;70.28;101079.44;5081870;28;20835;-79
2022/01/01 03:24:55;;;;;;;13.05;7.90;;;;;;;14.40;70.11;101071.53;5080222;28;20494;-80
2022/01/01 03:27:22;;;;;;;15.38;8.45;;;;;;;14.52;69.41;101073.72;5080365;28;20053;-80
2022/01/01 03:29:51;;;;;;;13.00;7.43;;;;;;;14.54;69.27;101069.44;5082570;28;20048;-80
2022/01/01 03:32:18;;;;;;;12.30;7.70;;;;;;;14.56;69.00;101080.38;5080638;28;20056;-80
2022/01/01 03:34:46;;;;;;;14.40;7.90;;;;;;;14.48;69.04;101076.34;5081320;28;20056;-80
2022/01/01 03:37:13;;;;;;;13.07;7.07;;;;;;;14.54;68.58;101080.66;5080108;28;20064;-81
2022/01/01 03:39:40;;;;;;;14.10;7.32;;;;;;;14.57;68.08;101080.03;5079710;28;20060;-81
2022/01/01 03:42:08;;;;;;;12.77;7.35;;;;;;;14.51;68.45;101078.50;5080573;28;20044;-81
2022/01/01 03:44:35;;;;;;;13.98;7.38;;;;;;;14.46;68.57;101073.03;5080840;28;20528;-81
2022/01/01 03:47:09;;;;;;;15.63;7.80;;;;;;;14.61;67.79;101072.63;5080395;28;20063;-82
2022/01/01 03:49:37;;;;;;;16.33;8.23;;;;;;;14.57;68.09;101074.44;5080123;28;20056;-81
2022/01/01 03:52:04;;;;;;;13.38;7.65;;;;;;;14.53;68.21;101070.59;5080176;28;20071;-81
2022/01/01 03:54:32;;;;;;;13.10;8.18;;;;;;;14.52;68.60;101063.31;5080699;28;20057;-81
2022/01/01 03:56:59;;;;;;;14.48;7.70;;;;;;;14.42;68.90;101060.81;5081126;28;20061;-81
2022/01/01 03:59:26;;;;;;;12.27;7.88;;;;;;;14.45;68.89;101059.34;5081593;28;20063;-81
2022/01/01 04:01:54;;;;;;;14.00;8.15;;;;;;;14.52;68.94;101065.31;5079489;28;20048;-79
2022/01/01 04:04:25;;;;;;;14.43;8.98;;;;;;;14.58;68.43;101064.84;5080760;28;20056;-79
2022/01/01 04:06:52;;;;;;;17.17;8.38;;;;;;;14.54;68.76;101061.03;5080556;28;20048;-81
2022/01/01 04:09:20;;;;;;;17.73;8.48;;;;;;;14.68;68.10;101066.53;5079893;28;20401;-79
2022/01/01 04:11:47;;;;;;;14.38;8.63;;;;;;;14.73;67.91;101052.34;5079358;28;20055;-81
2022/01/01 04:14:16;;;;;;;14.55;8.27;;;;;;;14.67;68.09;101064.88;5081519;28;20044;-81
2022/01/01 04:16:46;;;;;;;14.30;8.45;;;;;;;14.65;68.28;101069.16;5083072;28;20057;-81
2022/01/01 04:19:13;;;;;;;;;;;;;;;14.62;68.05;101067.84;5085010;28;20425;-79
2022/01/01 04:21:41;;;;;;;12.80;7.53;;;;;;;14.61;68.17;101068.97;5083014;28;19924;-81
2022/01/01 04:24:09;;;;;;;18.52;9.77;;;;;;;14.40;68.57;101051.91;5081549;28;20048;-80
2022/01/01 04:26:36;;;;;;;14.70;8.75;;;;;;;14.41;68.68;101050.78;5081404;28;20044;-80
2022/01/01 04:29:04;;;;;;;15.20;8.15;;;;;;;14.44;68.72;101047.31;5080875;28;20048;-79
2022/01/01 04:31:32;;;;;;;13.50;8.35;;;;;;;14.53;68.29;101042.56;5080424;28;20516;-80
2022/01/01 04:33:59;;;;;;;18.77;9.32;;;;;;;14.52;67.90;101038.09;5080978;28;20056;-80
2022/01/01 04:36:26;;;;;;;14.77;8.43;;;;;;;14.52;67.85;101046.50;5080040;28;20048;-81
2022/01/01 04:38:55;;;;;;;16.80;8.90;;;;;;;14.50;68.35;101048.81;5080562;28;20071;-80
2022/01/01 04:41:22;;;;;;;15.70;8.37;;;;;;;14.35;68.42;101044.50;5079863;28;20055;-80
2022/01/01 04:43:50;;;;;;;11.98;7.50;;;;;;;14.41;68.31;101047.97;5081559;28;20477;-80
2022/01/01 04:46:18;;;;;;;14.27;8.13;;;;;;;14.38;68.52;101049.47;5080782;28;20052;-80
2022/01/01 04:48:45;;;;;;;15.02;8.18;;;;;;;14.46;68.24;101053.41;5079947;28;20052;-79
2022/01/01 04:51:13;;;;;;;13.45;7.47;;;;;;;14.45;67.95;101048.97;5080944;28;20048;-79
2022/01/01 04:53:43;;;;;;;14.05;6.97;;;;;;;14.46;67.77;101056.22;5081131;28;20049;-78
2022/01/01 04:56:18;;;;;;;11.48;6.85;;;;;;;14.44;68.10;101052.09;5082471;28;20508;-79
2022/01/01 04:58:46;;;;;;;12.95;7.13;;;;;;;14.25;68.40;101049.59;5080178;28;20067;-80
2022/01/01 05:01:14;;;;;;;10.85;5.93;;;;;;;14.50;67.16;101056.41;5080685;28;20056;-79
2022/01/01 05:03:41;;;;;;;11.05;6.25;;;;;;;14.50;67.50;101048.00;5080738;28;20048;-79
2022/01/01 05:06:09;;;;;;;13.38;5.90;;;;;;;14.64;66.79;101054.31;5081183;28;20057;-80
2022/01/01 05:08:36;;;;;;;11.95;5.90;;;;;;;14.72;66.25;101047.91;5082034;28;20048;-80
2022/01/01 05:11:03;;;;;;;8.80;5.55;;;;;;;14.72;66.28;101044.25;5081328;28;20059;-79
2022/01/01 05:13:33;;;;;;;11.15;5.80;;;;;;;14.78;65.84;101034.53;5080385;28;20063;-80
2022/01/01 05:16:00;;;;;;;13.18;5.72;;;;;;;14.75;65.95;101040.81;5080075;28;20059;-80
2022/01/01 05:18:27;;;;;;;8.35;4.45;;;;;;;14.79;65.85;101034.19;5081118;28;20155;-79
2022/01/01 05:20:55;;;;;;;11.38;5.30;;;;;;;14.78;65.34;101034.53;5080379;28;20130;-80
2022/01/01 05:23:22;;;;;;;15.32;5.25;;;;;;;14.75;65.31;101043.59;5080628;28;20053;-80
2022/01/01 05:25:50;;;;;;;10.52;5.32;;;;;;;14.69;65.76;101059.75;5080170;28;20064;-80
2022/01/01 05:28:17;;;;;;;13.55;6.07;;;;;;;14.71;65.17;101065.88;5078528;28;20055;-79
2022/01/01 05:30:46;;;;;;;12.15;5.18;;;;;;;14.55;65.37;101065.53;5079042;28;20052;-79
2022/01/01 05:33:13;;;;;;;9.27;4.80;;;;;;;14.60;65.30;101068.16;5078714;28;20052;-79
2022/01/01 05:35:41;;;;;;;7.32;4.50;;;;;;;14.67;65.21;101078.06;5079758;28;20052;-79
2022/01/01 05:38:08;;;;;;;12.55;4.50;;;;;;;14.78;64.81;101080.25;5079812;28;20060;-80
2022/01/01 05:40:37;;;;;;;11.63;5.05;;;;;;;14.74;64.53;101075.59;5079831;28;20047;-80
2022/01/01 05:43:04;;;;;;;9.32;4.25;;;;;;;14.74;65.05;101081.19;5080572;28;20052;-80
2022/01/01 05:45:31;;;;;;;9.95;4.80;;;;;;;14.76;64.66;101079.75;5081832;28;20409;-80
2022/01/01 05:48:00;;;;;;;11.68;4.90;;;;;;;14.79;64.42;101090.28;5100397;28;20051;-80
2022/01/01 05:50:27;;;;;;;10.90;4.93;;;;;;;14.79;64.91;101098.69;5096812;28;20056;-79
2022/01/01 05:52:55;;;;;;;6.57;4.10;;;;;;;14.85;64.58;101098.56;5080165;28;20067;-79
2022/01/01 05:55:22;;;;;;;10.85;4.47;;;;;;;14.84;64.64;101099.69;5081091;28;20067;-79
2022/01/01 05:57:49;;;;;;;12.93;5.00;;;;;;;14.67;64.87;101090.09;5081446;28;20059;-81
2022/01/01 06:00:17;;;;;;;9.07;4.53;;;;;;;14.81;64.68;101104.00;5082833;28;20060;-80
2022/01/01 06:02:45;;;;;;;9.25;4.60;;;;;;;14.81;64.58;101101.19;5082707;28;20053;-80
2022/01/01 06:05:14;;;;;;;9.05;4.38;;;;;;;14.76;64.68;101107.78;5082442;28;20053;-80
2022/01/01 06:07:41;;;;;;;10.97;4.73;;;;;;;14.61;65.19;101097.88;5080790;28;20059;-80
2022/01/01 06:10:09;;;;;;;9.27;4.40;;;;;;;14.82;64.35;101094.41;5083209;28;20057;-79
2022/01/01 06:12:39;;;;;;;11.93;4.85;;;;;;;14.69;65.21;101087.78;5082875;28;20056;-79
2022/01/01 06:15:06;;;;;;;13.88;4.55;;;;;;;14.68;65.33;101086.16;5083180;28;20386;-80
2022/01/01 06:17:33;;;;;;;9.02;4.70;;;;;;;14.65;65.48;101086.78;5082558;28;20068;-79
2022/01/01 06:20:01;;;;;;;8.13;3.85;;;;;;;14.69;65.45;101090.59;5082389;28;20052;-81
2022/01/01 06:22:30;;;;;;;10.13;5.00;;;;;;;14.71;65.19;101079.06;5081830;28;20055;-80
2022/01/01 06:24:57;;;;;;;11.25;3.97;;;;;;;14.73;65.37;101083.19;5082746;28;20505;-80
2022/01/01 06:27:24;;;;;;;10.70;4.75;;;;;;;14.49;65.66;101089.22;5082639;28;20048;-80
2022/01/01 06:29:52;;;;;;;9.48;4.40;;;;;;;14.68;65.38;101090.91;5082494;28;20057;-80
2022/01/01 06:32:19;;;;;;;10.10;4.78;;;;;;;14.76;65.17;101102.19;5082671;28;20063;-79
2022/01/01 06:34:47;;;;;;;8.82;4.55;;;;;;;14.77;65.30;101103.00;5081676;28;20052;-79
2022/01/01 06:37:14;;;;;;;10.48;4.53;;;;;;;14.82;65.06;101100.88;5083191;28;20168;-79
2022/01/01 06:39:43;;;;;;;8.25;4.57;;;;;;;14.85;64.91;101109.78;5082877;28;20057;-79
2022/01/01 06:42:10;;;;;;;11.13;5.18;;;;;;;14.84;65.14;101110.91;5083347;28;20071;-80
2022/01/01 06:44:37;;;;;;;7.65;4.25;;;;;;;14.85;64.99;101118.19;5082841;28;20052;-80
2022/01/01 06:47:05;;;;;;;9.18;4.72;;;;;;;14.87;64.91;101127.94;5098063;28;20067;-80
2022/01/01 06:49:32;;;;;;;9.73;4.00;;;;;;;14.89;64.97;101128.44;5103934;28;20055;-80
2022/01/01 06:52:00;;;;;;;12.05;4.45;;;;;;;14.92;64.76;101129.75;5086343;28;20071;-79
2022/01/01 06:54:27;;;;;;;12.43;4.90;;;;;;;14.72;65.21;101136.78;5082418;28;20060;-80
2022/01/01 06:56:56;;;;;;;9.60;4.03;;;;;;;14.74;65.59;101126.06;5083394;28;20051;-80
2022/01/01 06:59:23;;;;;;;7.05;4.38;;;;;;;14.76;65.10;101134.97;5082116;28;20049;-80
2022/01/01 07:01:52;;;;;;;7.28;4.03;;;;;;;14.64;65.64;101134.81;5082847;28;20060;-79
2022/01/01 07:04:19;;;;;;;9.00;4.93;;;;;;;14.69;65.37;101129.03;5085010;28;20048;-80
2022/01/01 07:06:48;;;;;;;10.35;4.65;;;;;;;14.55;65.90;101124.41;5084025;28;20053;-79
2022/01/01 07:09:16;;;;;;;9.15;4.35;;;;;;;14.65;65.42;101122.44;5083474;28;20501;-80
2022/01/01 07:11:43;;;;;;;8.38;4.13;;;;;;;14.72;65.53;101119.97;5083711;28;20393;-80
2022/01/01 07:14:12;;;;;;;9.88;4.30;;;;;;;14.56;65.53;101117.63;5082729;28;20060;-79
2022/01/01 07:16:40;;;;;;;8.98;4.05;;;;;;;14.68;65.64;101135.78;5082509;28;20056;-80
2022/01/01 07:19:07;;;;;;;11.35;4.18;;;;;;;14.67;65.36;101132.16;5082410;28;20071;-80
2022/01/01 07:21:34;;;;;;;11.13;4.60;;;;;;;14.63;65.73;101122.75;5081047;28;20404;-79
2022/01/01 07:24:01;;;;;;;11.57;4.63;;;;;;;14.61;65.89;101133.47;5082415;28;20044;-80
2022/01/01 07:26:29;;;;;;;9.43;4.57;;;;;;;14.58;65.89;101123.72;5081579;28;20053;-80
2022/01/01 07:28:56;;;;;;;9.05;3.97;;;;;;;14.57;66.07;101129.66;5081283;28;20060;-80
2022/01/01 07:31:25;;;;;;;10.25;4.35;;;;;;;14.57;66.01;101138.91;5081056;28;20055;-80
2022/01/01 07:33:53;;;;;;;8.73;4.28;;;;;;;14.56;66.01;101128.03;5080826;28;20052;-80
2022/01/01 07:36:20;;;;;;;9.68;4.82;;;;;;;14.61;65.93;101125.91;5081205;28;20057;-80
2022/01/01 07:38:47;;;;;;;8.40;3.70;;;;;;;14.57;65.95;101130.50;5082146;28;20049;-80
2022/01/01 07:41:14;;;;;;;7.20;3.53;;;;;;;14.56;66.21;101126.03;5082392;28;20071;-80
2022/01/01 07:43:42;;;;;;;9.02;4.18;;;;;;;14.49;66.08;101133.22;5080503;28;20052;-80
2022/01/01 07:46:09;;;;;;;8.35;4.00;;;;;;;14.56;65.83;101144.84;5086400;28;20067;-80
2022/01/01 07:48:38;;;;;;;9.10;4.15;;;;;;;14.58;65.92;101148.97;5101987;28;20052;-79
2022/01/01 07:51:05;;;;;;;8.77;3.47;;;;;;;14.53;66.11;101140.69;5092257;28;20049;-81
2022/01/01 07:53:33;;;;;;;9.80;3.75;;;;;;;14.63;65.95;101133.16;5079451;28;20045;-81
2022/01/01 07:56:00;;;;;;;7.28;3.47;;;;;;;14.65;65.68;101140.06;5080179;28;20056;-81
2022/01/01 07:58:27;;;;;;;8.63;3.83;;;;;;;14.58;65.62;101140.56;5080642;28;20060;-79
2022/01/01 08:00:55;;;;;;;7.43;3.20;;;;;;;14.62;65.38;101143.53;5080032;28;20048;-81
2022/01/01 08:03:22;;;;;;;11.32;3.67;;;;;;;14.71;65.27;101143.56;5080421;28;20055;-79
2022/01/01 08:05:51;;;;;;;8.68;3.58;;;;;;;14.69;65.17;101143.06;5081206;28;20056;-80
2022/01/01 08:08:19;;;;;;;7.80;3.63;;;;;;;14.69;65.42;101141.06;5080467;28;20053;-80
2022/01/01 08:10:46;;;;;;;7.10;3.33;;;;;;;14.75;64.88;101150.16;5079255;28;20049;-79
2022/01/01 08:13:21;;;;;;;7.95;3.50;;;;;;;14.74;64.82;101143.75;5079435;28;20060;-79
2022/01/01 08:15:49;;;;;;;7.82;3.58;;;;;;;14.81;64.78;101151.66;5079853;28;20409;-79
2022/01/01 08:18:17;;;;;;;9.20;3.35;;;;;;;14.88;64.41;101152.00;5080545;28;20056;-81
2022/01/01 08:20:45;;;;;;;8.35;3.63;;;;;;;14.93;64.07;101151.88;5081679;28;20048;-81
2022/01/01 08:23:14;;;;;;;7.85;3.35;;;;;;;14.95;64.14;101149.56;5082351;28;20044;-80
2022/01/01 08:25:42;;;;;;;5.95;2.83;;;;;;;15.00;63.74;101149.38;5080697;28;20476;-81
2022/01/01 08:28:10;;;;;;;9.23;3.50;;;;;;;14.99;63.74;101155.31;5081229;28;20064;-81
2022/01/01 08:30:37;;;;;;;7.85;3.05;;;;;;;15.04;63.80;101154.34;5081925;28;20045;-80
2022/01/01 08:33:05;;;;;;;6.10;2.90;;;;;;;14.94;64.00;101150.69;5082510;28;20064;-80
2022/01/01 08:35:33;;;;;;;7.85;3.00;;;;;;;15.14;63.42;101146.44;5081916;28;20063;-81
2022/01/01 08:38:04;;;;;;;5.88;3.22;;;;;;;15.15;63.16;101150.06;5080606;28;20387;-81
2022/01/01 08:40:33;;;;;;;6.00;3.17;;;;;;;15.04;63.64;101154.34;5080111;28;20061;-80
2022/01/01 08:43:01;;;;;;;7.53;2.90;;;;;;;15.09;63.36;101159.81;5080904;28;20056;-80
2022/01/01 08:45:29;;;;;;;8.68;3.58;;;;;;;15.04;63.72;101166.41;5080963;28;20409;-81
2022/01/01 08:47:56;;;;;;;8.18;3.05;;;;;;;15.21;62.71;101166.41;5082543;28;20048;-80
2022/01/01 08:50:23;;;;;;;5.38;2.67;;;;;;;15.25;62.60;101179.81;5081007;28;20053;-81
2022/01/01 08:52:51;;;;;;;8.45;2.92;;;;;;;15.20;62.47;101172.34;5080473;28;20061;-80
2022/01/01 08:55:18;;;;;;;7.97;2.90;;;;;;;15.28;62.19;101176.31;5081702;28;20055;-81
2022/01/01 08:57:47;;;;;;;10.07;3.35;;;;;;;15.30;62.35;101177.63;5081842;28;20049;-79
2022/01/01 09:00:15;;;;;;;7.47;4.30;;;;;;;15.15;62.84;101178.13;5080152;28;20053;-81
2022/01/01 09:02:42;;;;;;;7.25;3.65;;;;;;;15.19;62.56;101184.75;5080335;28;20052;-81
2022/01/01 09:05:10;;;;;;;6.68;2.90;;;;;;;15.09;62.41;101182.25;5080522;28;20481;-81
2022/01/01 09:07:38;;;;;;;9.18;3.15;;;;;;;15.07;62.40;101187.34;5079649;28;20059;-80
2022/01/01 09:10:07;;;;;;;7.13;4.50;;;;;;;14.96;63.05;101179.25;5079489;28;20048;-79
2022/01/01 09:12:34;;;;;;;7.43;3.88;;;;;;;15.10;62.63;101186.69;5079992;28;20059;-79
2022/01/01 09:15:04;;;;;;;11.70;5.43;;;;;;;15.23;62.04;101185.75;5080373;28;20055;-80
2022/01/01 09:17:31;;;;;;;8.00;3.45;;;;;;;15.31;61.91;101179.31;5079056;28;20393;-80
2022/01/01 09:19:58;;;;;;;11.45;4.38;;;;;;;15.32;61.96;101186.56;5079706;28;20071;-80
2022/01/01 09:22:26;;;;;;;9.45;4.13;;;;;;;15.35;61.79;101194.34;5079944;28;20056;-80
2022/01/01 09:24:54;;;;;;;10.88;5.50;;;;;;;15.50;61.55;101189.41;5079591;28;20059;-79
2022/01/01 09:27:21;;;;;;;12.85;6.63;;;;;;;15.57;61.15;101200.94;5079482;28;20409;-80
2022/01/01 09:29:49;;;;;;;11.90;5.38;;;;;;;15.35;61.55;101194.34;5078865;28;20048;-80
2022/01/01 09:32:18;;;;;;;6.32;2.85;;;;;;;15.58;60.96;101185.72;5078474;28;20057;-80
2022/01/01 09:34:46;;;;;;;8.30;3.05;;;;;;;15.55;60.83;101187.22;5078719;28;20432;-80
2022/01/01 09:37:14;;;;;;;5.85;2.55;;;;;;;15.70;59.99;101180.28;5079114;28;20064;-80
2022/01/01 09:39:41;;;;;;;5.43;2.53;;;;;;;15.78;59.21;101184.28;5078559;28;20056;-79
2022/01/01 09:42:11;;;;;;;5.45;2.50;;;;;;;15.92;58.69;101184.91;5078811;28;20053;-80
2022/01/01 09:44:40;;;;;;;7.05;2.33;;;;;;;16.01;58.29;101174.47;5080808;28;20055;-81
2022/01/01 09:47:08;;;;;;;7.63;2.28;;;;;;;16.54;56.64;101180.75;5095809;28;20144;-79
2022/01/01 09:49:37;;;;;;;6.45;2.28;;;;;;;17.77;54.15;101170.31;5100411;28;20062;-80
2022/01/01 09:52:05;;;;;;;8.57;2.38;;;;;;;17.76;53.24;101176.28;5084813;28;20052;-81
2022/01/01 09:54:34;;;;;;;6.40;3.17;;;;;;;18.89;49.89;101172.19;5081767;28;20048;-80
2022/01/01 09:57:01;;;;;;;5.68;2.30;;;;;;;19.91;47.31;101166.38;5082885;28;20060;-81
2022/01/01 09:59:31;;;;;;;6.53;2.47;;;;;;;20.49;45.68;101163.06;5082242;28;20068;-81
2022/01/01 10:01:59;;;;;;;6.60;1.98;;;;;;;20.23;45.85;101158.75;5081122;28;20494;-80
2022/01/01 10:04:26;;;;;;;5.38;2.33;;;;;;;19.98;45.83;101155.25;5080055;28;20064;-81
2022/01/01 10:07:05;;;;;;;4.88;2.22;;;;;;;19.72;46.98;101158.59;5081231;28;20055;-81
2022/01/01 10:09:34;;;;;;;5.20;2.33;;;;;;;19.61;46.74;101154.56;5079203;28;20060;-80
2022/01/01 10:12:02;;;;;;;5.63;1.90;;;;;;;19.61;47.09;101163.91;5079284;28;20063;-81
2022/01/01 10:14:36;;;;;;;5.45;2.20;;;;;;;19.98;45.84;101157.28;5079373;28;20045;-80
2022/01/01 10:17:15;;;;;;;4.97;2.22;;;;;;;19.51;46.57;101167.22;5079539;28;20053;-80
2022/01/01 10:19:43;;;;;;;3.80;1.63;;;;;;;19.09;47.82;101166.72;5079295;28;20047;-81
2022/01/01 10:22:13;;;;;;;4.60;1.85;;;;;;;18.82;48.33;101163.50;5080738;28;20048;-80
2022/01/01 10:27:45;;;;;;;4.40;1.80;;;;;;;18.79;48.79;101172.66;5021565;28;20060;-79
2022/01/01 10:30:21;;;;;;;7.18;2.17;;;;;;;18.26;49.18;101162.00;5080487;28;20059;-79
2022/01/01 10:33:05;;;;;;;4.72;2.17;;;;;;;18.33;49.48;101158.63;5061199;28;20053;-80
2022/01/01 10:35:43;;;;;;;5.65;2.30;;;;;;;17.85;50.61;101158.16;5061683;28;20052;-79
2022/01/01 10:38:13;;;;;;;4.82;1.90;;;;;;;18.01;50.95;101152.66;5063465;28;20052;-80
2022/01/01 10:40:42;;;;;;;4.38;1.80;;;;;;;17.81;51.11;101140.25;5066518;28;20045;-80
2022/01/01 10:43:10;;;;;;;7.93;2.05;;;;;;;17.36;52.15;101140.19;5083518;28;20059;-81
2022/01/01 10:45:40;;;;;;;5.23;2.07;;;;;;;17.56;52.06;101147.81;5084193;28;20075;-81
2022/01/01 10:48:21;;;;;;;5.82;1.98;;;;;;;17.51;52.50;101142.38;5086757;28;20159;-80
2022/01/01 10:50:49;;;;;;;5.93;1.95;;;;;;;17.31;52.66;101149.69;5085803;28;20049;-81
2022/01/01 10:53:22;;;;;;;6.55;1.95;;;;;;;17.55;52.27;101162.22;5087224;28;20061;-80
2022/01/01 10:55:52;;;;;;;5.75;2.03;;;;;;;17.49;52.64;101166.41;5087806;28;20044;-82
2022/01/01 10:58:22;;;;;;;6.07;1.90;;;;;;;17.51;52.40;101141.53;5088099;28;20053;-81
2022/01/01 11:00:51;;;;;;;4.57;1.90;;;;;;;18.26;50.83;101145.09;5087237;28;20052;-81
2022/01/01 11:03:20;;;;;;;4.78;1.90;;;;;;;18.37;50.75;101141.81;5086148;28;20057;-81
2022/01/01 11:05:51;;;;;;;5.40;2.25;;;;;;;18.84;49.71;101141.38;5085465;28;20052;-81
2022/01/01 11:08:20;;;;;;;6.10;1.98;;;;;;;18.85;49.24;101143.81;5086125;28;20057;-81
2022/01/01 11:10:50;;;;;;;4.28;1.95;;;;;;;18.58;50.21;101134.06;5085065;28;20059;-80
2022/01/01 11:13:19;;;;;;;6.60;2.10;;;;;;;18.58;50.00;101133.22;5085122;28;20048;-81
2022/01/01 11:15:47;;;;;;;;;;;;;;;18.60;49.60;101137.34;5086826;28;20059;-81
2022/01/01 11:18:14;;;;;;;4.38;1.90;;;;;;;18.59;48.99;101132.88;5085356;28;19932;-81
2022/01/01 11:20:42;;;;;;;6.22;1.90;;;;;;;18.60;49.19;101128.06;5084467;28;20055;-81
2022/01/01 11:23:12;;;;;;;6.03;1.92;;;;;;;18.78;48.92;101125.81;5086167;28;20049;-81
2022/01/01 11:25:42;;;;;;;4.22;1.73;;;;;;;19.22;48.02;101106.25;5084659;28;20059;-80
2022/01/01 11:28:12;;;;;;;3.30;1.85;;;;;;;18.98;48.27;101109.94;5083499;28;20492;-81
2022/01/01 11:30:45;;;;;;;4.72;1.80;;;;;;;18.98;48.39;101104.28;5084553;28;20040;-80